Time;durP1;ratioP1;P1;durP2;ratioP2;P2;SDS_P1;SDS_P2;PMS_P1;PMS_P2;Temp;Humidity;BMP_temperature;BMP_pressure;BME280_temperature;BME280_humidity;BME280_pressure;Samples;Min_cycle;Max_cycle;Signal;HPM_P1;HPM_P2
2021/09/14 00:06:13;;;;;;;38.40;14.35;;;;;;;18.74;55.65;100672.03;1747479;82;21020;-59
2021/09/14 00:09:14;;;;;;;46.40;15.20;;;;;;;18.78;55.30;100668.59;1747796;82;21536;-58
2021/09/14 00:11:43;;;;;;;40.33;15.72;;;;;;;18.80;54.73;100670.73;1748226;81;21102;-58
2021/09/14 00:14:28;;;;;;;33.48;15.55;;;;;;;18.84;54.56;100670.38;1740870;81;33377;-58
2021/09/14 00:17:00;;;;;;;30.62;16.60;;;;;;;18.91;54.24;100672.17;1746884;80;21078;-58
2021/09/14 00:22:04;;;;;;;41.83;15.95;;;;;;;19.00;53.76;100672.05;1746728;79;21066;-59
2021/09/14 00:24:52;;;;;;;22.73;12.20;;;;;;;19.06;53.63;100672.95;1747134;82;20928;-58
2021/09/14 00:32:48;;;;;;;25.90;12.63;;;;;;;18.91;53.84;100670.81;1747664;82;21039;-58
2021/09/14 00:35:14;;;;;;;25.92;11.70;;;;;;;18.86;53.98;100675.72;1758204;81;21392;-58
2021/09/14 00:43:07;;;;;;;19.77;11.65;;;;;;;18.61;54.35;100674.23;1757960;81;21088;-58
2021/09/14 00:45:39;;;;;;;24.52;12.23;;;;;;;18.55;54.50;100678.75;1757661;81;21048;-57
2021/09/14 00:48:06;;;;;;;23.65;11.10;;;;;;;18.48;54.64;100678.81;1757057;81;21885;-58
2021/09/14 00:50:46;;;;;;;33.15;13.00;;;;;;;18.44;54.93;100684.05;1723627;81;21496;-58
2021/09/14 00:53:14;;;;;;;25.45;13.90;;;;;;;18.36;55.04;100683.72;1759913;79;21045;-58
2021/09/14 00:55:43;;;;;;;28.32;13.35;;;;;;;18.29;55.41;100681.91;1761933;79;21476;-57
2021/09/14 00:58:10;;;;;;;27.22;13.53;;;;;;;18.21;55.57;100687.00;1761833;81;21045;-58
2021/09/14 01:05:50;;;;;;;28.20;14.33;;;;;;;18.08;56.25;100685.62;1764130;81;21029;-57
2021/09/14 01:08:19;;;;;;;35.28;17.65;;;;;;;18.04;56.37;100684.94;1767683;80;21008;-58
2021/09/14 01:16:11;;;;;;;31.70;15.03;;;;;;;17.96;56.90;100684.06;1766777;81;21519;-58
2021/09/14 01:21:22;;;;;;;33.95;19.37;;;;;;;17.95;56.77;100682.84;1767985;79;21012;-58
2021/09/14 01:23:48;;;;;;;40.38;19.45;;;;;;;17.94;56.73;100686.02;1767852;81;21064;-58
2021/09/14 01:28:47;;;;;;;34.83;17.25;;;;;;;17.94;57.00;100684.66;1768761;80;21051;-58
2021/09/14 01:31:15;;;;;;;39.75;17.73;;;;;;;17.90;57.09;100690.80;1769024;80;21033;-59
2021/09/14 01:41:30;;;;;;;37.88;18.30;;;;;;;17.74;57.38;100693.64;1743125;81;20945;-58
2021/09/14 01:43:59;;;;;;;33.48;16.80;;;;;;;17.76;57.27;100693.05;1768214;80;21095;-58
2021/09/14 01:46:26;;;;;;;33.75;16.15;;;;;;;17.79;57.44;100696.52;1768194;81;21083;-58
2021/09/14 01:48:54;;;;;;;34.40;16.75;;;;;;;17.76;57.44;100697.11;1768011;81;21360;-58
2021/09/14 01:53:58;;;;;;;35.83;16.12;;;;;;;17.73;57.14;100697.33;1762147;80;21121;-58
2021/09/14 01:56:39;;;;;;;26.40;13.15;;;;;;;17.78;57.12;100689.36;1725626;81;21055;-57
2021/09/14 02:01:49;;;;;;;36.73;13.05;;;;;;;17.83;56.34;100689.95;1757557;81;21436;-58
2021/09/14 02:04:47;;;;;;;29.07;13.85;;;;;;;17.90;56.11;100692.62;1756486;80;21480;-58
2021/09/14 02:24:22;;;;;;;29.82;13.62;;;;;;;17.93;55.71;100696.48;1706811;84;21167;-58
2021/09/14 02:39:09;;;;;;;25.95;12.82;;;;;;;17.47;57.71;100694.48;1714995;82;21034;-57
2021/09/14 02:44:46;;;;;;;26.30;13.48;;;;;;;17.34;58.25;100692.17;1714393;83;21085;-59
2021/09/14 03:01:02;;;;;;;29.07;12.60;;;;;;;16.95;60.20;100712.70;1768600;81;21958;-58
2021/09/14 03:03:29;;;;;;;29.48;13.85;;;;;;;16.85;60.67;100709.19;1768303;81;21063;-58
2021/09/14 03:05:57;;;;;;;26.85;13.22;;;;;;;16.79;61.34;100717.70;1744416;81;21103;-59
2021/09/14 03:08:34;;;;;;;27.90;12.88;;;;;;;16.80;61.46;100715.38;1720979;82;21095;-58
2021/09/14 03:11:12;;;;;;;28.80;15.00;;;;;;;16.80;61.50;100714.03;1700465;84;21125;-59
2021/09/14 03:13:41;;;;;;;24.20;13.50;;;;;;;16.83;61.61;100720.61;1740842;81;21075;-59
2021/09/14 03:16:09;;;;;;;23.57;13.68;;;;;;;16.88;61.52;100725.24;1741112;81;21108;-58
2021/09/14 03:18:36;;;;;;;38.17;17.42;;;;;;;16.90;61.38;100715.19;1764873;81;21422;-58
2021/09/14 03:21:07;;;;;;;39.67;16.07;;;;;;;16.89;61.48;100725.63;1737853;82;21072;-59
2021/09/14 03:28:58;;;;;;;29.80;15.23;;;;;;;16.89;61.73;100722.92;1768232;80;22318;-59
2021/09/14 03:31:25;;;;;;;28.05;13.62;;;;;;;16.92;61.70;100730.49;1768996;81;21044;-59
2021/09/14 03:33:55;;;;;;;31.68;16.25;;;;;;;16.92;61.63;100739.47;1768553;80;21130;-59
2021/09/14 03:36:23;;;;;;;30.10;14.87;;;;;;;16.88;61.68;100738.78;1744701;81;21080;-60
2021/09/14 03:41:38;;;;;;;32.95;17.80;;;;;;;16.84;61.90;100745.36;1767428;81;21044;-58
2021/09/14 03:44:31;;;;;;;33.83;15.35;;;;;;;16.85;62.02;100747.09;1762955;81;21083;-59
2021/09/14 03:47:00;;;;;;;31.62;16.65;;;;;;;16.88;62.04;100747.41;1762859;81;21642;-58
2021/09/14 03:49:28;;;;;;;29.85;17.27;;;;;;;16.92;62.04;100752.16;1729448;82;20991;-59
2021/09/14 03:51:55;;;;;;;25.45;13.72;;;;;;;16.92;61.89;100756.22;1729567;81;21098;-58
2021/09/14 03:54:33;;;;;;;21.87;12.33;;;;;;;16.92;61.75;100761.64;1729133;82;21051;-59
2021/09/14 04:25:57;;;;;;;33.05;14.47;;;;;;;17.16;61.92;100775.04;1767396;81;21528;-58
2021/09/14 04:34:01;;;;;;;28.55;13.93;;;;;;;17.43;61.21;100776.97;1768669;81;21084;-59
2021/09/14 04:39:05;;;;;;;25.02;13.18;;;;;;;17.63;60.72;100784.31;1736595;82;21100;-59
2021/09/14 04:41:32;;;;;;;28.52;15.25;;;;;;;17.71;60.53;100783.82;1736858;82;21069;-59
2021/09/14 04:43:59;;;;;;;32.53;16.55;;;;;;;17.78;60.25;100784.27;1736676;82;21533;-58
2021/09/14 04:49:43;;;;;;;29.55;16.37;;;;;;;17.89;60.02;100792.59;1797522;76;70239;-65
2021/09/14 04:52:11;;;;;;;33.00;17.32;;;;;;;17.95;60.05;100793.53;1753093;80;21441;-60
2021/09/14 04:54:38;;;;;;;36.08;18.45;;;;;;;18.08;59.88;100800.41;1776391;79;21426;-61
2021/09/14 04:57:07;;;;;;;36.53;15.83;;;;;;;18.15;59.82;100797.70;1774571;80;20930;-60
2021/09/14 04:59:34;;;;;;;33.63;17.05;;;;;;;18.24;59.78;100794.86;1757320;80;20952;-61
2021/09/14 05:02:01;;;;;;;29.60;14.83;;;;;;;18.32;59.65;100795.20;1752481;80;21336;-61
2021/09/14 05:04:29;;;;;;;37.03;15.70;;;;;;;18.41;59.53;100796.91;1752249;80;21063;-61
2021/09/14 05:06:56;;;;;;;30.97;16.27;;;;;;;18.49;59.61;100801.34;1742766;81;21038;-61
2021/09/14 05:09:23;;;;;;;30.32;17.10;;;;;;;18.74;59.46;100804.59;1750698;81;21160;-61
2021/09/14 05:11:52;;;;;;;41.55;18.82;;;;;;;19.07;58.52;100807.82;1753004;81;21058;-61
2021/09/14 05:14:22;;;;;;;42.03;18.10;;;;;;;19.26;57.83;100811.96;1753912;80;21110;-62
2021/09/14 05:17:00;;;;;;;46.10;18.75;;;;;;;19.36;57.79;100807.63;1757723;80;21418;-61
2021/09/14 05:19:37;;;;;;;40.43;18.15;;;;;;;19.47;57.78;100795.48;1756244;80;21488;-61
2021/09/14 05:22:04;;;;;;;39.48;18.82;;;;;;;19.56;57.71;100807.55;1756124;81;21128;-61
2021/09/14 05:24:32;;;;;;;33.35;17.32;;;;;;;19.59;57.79;100799.16;1756185;80;21464;-61
2021/09/14 05:27:00;;;;;;;46.25;18.48;;;;;;;19.68;58.08;100803.06;1755392;81;20949;-61
2021/09/14 05:29:27;;;;;;;44.70;19.15;;;;;;;19.81;58.05;100799.45;1747839;80;20973;-61
2021/09/14 05:31:54;;;;;;;43.68;19.35;;;;;;;19.91;58.08;100793.73;1746399;81;21119;-61
2021/09/14 05:34:22;;;;;;;39.13;20.37;;;;;;;20.00;58.04;100798.48;1755042;81;22077;-61
2021/09/14 05:36:50;;;;;;;36.63;19.45;;;;;;;20.12;58.03;100799.92;1761123;80;21449;-61
2021/09/14 05:39:18;;;;;;;40.98;19.65;;;;;;;20.18;57.93;100807.14;1781334;79;20983;-61
2021/09/14 05:41:45;;;;;;;36.17;18.57;;;;;;;20.27;57.98;100809.67;1746136;82;21060;-61
2021/09/14 05:44:12;;;;;;;35.38;20.25;;;;;;;20.39;58.05;100806.52;1738003;80;21106;-62
2021/09/14 05:46:40;;;;;;;37.30;20.10;;;;;;;20.52;57.61;100805.08;1753979;80;21544;-62
2021/09/14 05:49:07;;;;;;;38.90;18.30;;;;;;;20.61;57.46;100812.53;1752023;80;20991;-61
2021/09/14 05:51:35;;;;;;;38.53;18.50;;;;;;;20.73;57.31;100810.72;1746455;80;21080;-62
2021/09/14 05:54:04;;;;;;;41.28;19.52;;;;;;;20.84;57.22;100807.19;1760742;80;21421;-62
2021/09/14 05:56:31;;;;;;;43.95;20.43;;;;;;;20.89;57.19;100819.99;1749149;80;21562;-62
2021/09/14 05:59:01;;;;;;;42.88;21.97;;;;;;;20.99;57.13;100815.17;1713231;81;21422;-62
2021/09/14 06:01:28;;;;;;;39.33;20.70;;;;;;;21.14;56.99;100818.06;1692887;83;21103;-57
2021/09/14 06:03:56;;;;;;;37.95;20.37;;;;;;;21.21;56.67;100817.06;1672221;84;21325;-56
2021/09/14 06:06:23;;;;;;;36.15;19.50;;;;;;;21.28;56.64;100821.53;1696510;83;21080;-56
2021/09/14 06:08:52;;;;;;;39.08;20.48;;;;;;;21.34;56.73;100815.61;1756513;80;21034;-56
2021/09/14 06:11:27;;;;;;;41.37;21.33;;;;;;;21.51;56.64;100816.09;1750631;80;21138;-56
2021/09/14 06:13:56;;;;;;;42.70;19.12;;;;;;;21.65;56.19;100810.92;1753697;80;21440;-54
2021/09/14 06:16:23;;;;;;;39.63;21.65;;;;;;;21.74;56.15;100813.77;1755776;80;21027;-57
2021/09/14 06:18:51;;;;;;;41.45;20.70;;;;;;;21.86;55.78;100816.50;1755822;80;21014;-57
2021/09/14 06:21:20;;;;;;;41.80;20.00;;;;;;;21.94;55.46;100811.78;1758651;80;21432;-62
2021/09/14 06:23:49;;;;;;;45.45;20.40;;;;;;;22.06;55.48;100812.11;1752106;80;20969;-56
2021/09/14 06:26:18;;;;;;;39.50;19.42;;;;;;;22.29;55.08;100817.03;1726002;80;21087;-56
2021/09/14 06:28:46;;;;;;;33.28;17.80;;;;;;;22.76;54.24;100822.71;1715216;81;22156;-62
2021/09/14 06:31:31;;;;;;;27.62;17.45;;;;;;;23.44;52.91;100831.04;1753439;80;21058;-62
2021/09/14 06:36:43;;;;;;;49.55;20.15;;;;;;;24.14;50.54;100822.08;1749433;80;21316;-56
2021/09/14 06:39:10;;;;;;;46.85;21.02;;;;;;;24.53;50.20;100826.25;1750125;80;21550;-61
2021/09/14 06:41:40;;;;;;;42.70;22.15;;;;;;;25.24;49.29;100821.94;1747630;80;21140;-63
2021/09/14 06:44:09;;;;;;;37.45;21.48;;;;;;;26.20;47.26;100827.73;1745415;80;21040;-63
2021/09/14 06:46:41;;;;;;;39.75;22.40;;;;;;;26.47;45.45;100827.32;1747391;80;21067;-62
2021/09/14 06:52:22;;;;;;;30.62;18.73;;;;;;;26.36;45.71;100827.53;1749944;80;21099;-62
2021/09/14 06:54:49;;;;;;;35.23;19.80;;;;;;;26.40;45.02;100833.06;1762060;80;21713;-62
2021/09/14 06:57:23;;;;;;;34.65;18.48;;;;;;;26.09;45.39;100835.65;1747021;80;21113;-63
2021/09/14 06:59:50;;;;;;;33.90;20.10;;;;;;;25.78;45.93;100840.59;1745318;80;21108;-62
2021/09/14 07:02:20;;;;;;;36.05;21.42;;;;;;;25.57;46.35;100841.67;1749333;80;21203;-57
2021/09/14 07:05:02;;;;;;;39.88;20.92;;;;;;;25.38;47.01;100837.95;1748782;80;21258;-62
2021/09/14 07:07:29;;;;;;;45.98;21.62;;;;;;;25.31;47.48;100838.16;1746612;80;21530;-62
2021/09/14 07:09:58;;;;;;;46.70;21.68;;;;;;;25.30;47.74;100839.17;1742162;80;21111;-62
2021/09/14 07:12:34;;;;;;;40.48;22.25;;;;;;;25.27;47.87;100847.70;1753859;80;21046;-57
2021/09/14 07:15:03;;;;;;;42.45;22.75;;;;;;;25.23;48.00;100842.16;1741368;80;21203;-57
2021/09/14 07:17:40;;;;;;;39.88;20.72;;;;;;;25.23;48.26;100847.65;1746823;80;21499;-58
2021/09/14 07:20:08;;;;;;;41.90;21.62;;;;;;;25.24;48.42;100848.01;1750791;80;21592;-59
2021/09/14 07:22:36;;;;;;;33.67;20.02;;;;;;;25.28;48.28;100850.81;1723631;81;21094;-56
2021/09/14 07:28:09;;;;;;;32.30;18.92;;;;;;;25.33;48.03;100847.14;1714636;82;21592;-57
2021/09/14 07:30:45;;;;;;;32.25;18.15;;;;;;;25.36;47.68;100850.07;1708946;82;21563;-56
2021/09/14 07:33:12;;;;;;;32.50;18.52;;;;;;;25.29;47.65;100842.93;1712908;81;21011;-57
2021/09/14 07:35:57;;;;;;;38.35;18.82;;;;;;;25.25;47.74;100848.36;1763620;80;21461;-56
2021/09/14 07:38:24;;;;;;;40.90;18.82;;;;;;;25.26;47.97;100841.86;1729700;80;21011;-56
2021/09/14 07:41:11;;;;;;;43.65;19.65;;;;;;;25.29;48.21;100844.30;1749562;80;21124;-56
2021/09/14 07:46:25;;;;;;;47.13;19.60;;;;;;;25.42;48.12;100840.74;1724031;81;21130;-63
2021/09/14 07:48:52;;;;;;;36.90;19.15;;;;;;;25.55;48.44;100838.22;1724598;81;21562;-63
2021/09/14 07:51:19;;;;;;;42.83;19.55;;;;;;;25.66;48.50;100836.64;1704558;81;21607;-62
2021/09/14 07:53:47;;;;;;;50.92;19.55;;;;;;;25.77;47.89;100844.34;1702875;81;21138;-62
2021/09/14 07:56:22;;;;;;;41.92;18.32;;;;;;;25.85;47.90;100836.20;1720877;82;21104;-63
2021/09/14 08:04:27;;;;;;;38.30;17.23;;;;;;;26.21;46.98;100836.33;1680562;83;21067;-61
2021/09/14 08:17:16;;;;;;;26.10;13.95;;;;;;;26.64;45.06;100841.20;1690983;83;21176;-61
2021/09/14 08:19:43;;;;;;;31.00;15.45;;;;;;;26.69;44.44;100843.84;1687552;82;21088;-62
2021/09/14 08:22:12;;;;;;;26.62;13.83;;;;;;;26.75;44.73;100838.23;1693177;83;21394;-61
2021/09/14 08:27:08;;;;;;;21.97;12.43;;;;;;;26.98;44.09;100846.89;1695363;83;22287;-57
2021/09/14 08:29:36;;;;;;;23.87;11.43;;;;;;;27.10;43.83;100835.12;1689709;83;21067;-57
2021/09/14 08:32:08;;;;;;;23.85;12.13;;;;;;;27.14;43.14;100861.28;1716363;81;21555;-63
2021/09/14 08:37:15;;;;;;;20.37;11.10;;;;;;;27.08;43.61;100843.17;1698503;81;21472;-61
2021/09/14 08:39:42;;;;;;;23.10;11.25;;;;;;;27.08;43.59;100841.30;1732894;81;20976;-57
2021/09/14 08:42:09;;;;;;;39.67;13.53;;;;;;;27.08;43.62;100844.05;1692036;83;21079;-59
2021/09/14 08:44:38;;;;;;;24.47;13.90;;;;;;;27.13;44.69;100844.92;1694641;83;21851;-56
2021/09/14 08:47:06;;;;;;;19.35;12.90;;;;;;;27.14;45.49;100843.40;1693159;83;21056;-57
2021/09/14 08:49:34;;;;;;;19.98;12.55;;;;;;;27.13;45.14;100839.42;1694819;83;21114;-57
2021/09/14 08:52:07;;;;;;;25.72;13.20;;;;;;;27.11;44.80;100843.72;1681648;81;21160;-57
2021/09/14 08:54:39;;;;;;;20.82;13.93;;;;;;;27.06;45.15;100839.19;1718515;81;21154;-57
2021/09/14 08:59:53;;;;;;;20.43;13.78;;;;;;;27.09;45.38;100834.77;1719506;81;21114;-61
2021/09/14 09:02:21;;;;;;;27.60;13.65;;;;;;;27.08;45.70;100838.55;1675312;83;21087;-57
2021/09/14 09:07:34;;;;;;;31.80;15.18;;;;;;;27.11;45.36;100836.84;1713715;81;21026;-56
2021/09/14 09:10:18;;;;;;;32.00;16.87;;;;;;;27.15;45.40;100838.74;1733446;81;20968;-57
2021/09/14 09:12:47;;;;;;;20.97;13.45;;;;;;;27.20;47.25;100831.39;1700358;82;21226;-61
2021/09/14 09:15:30;;;;;;;36.77;17.52;;;;;;;27.20;46.55;100832.77;1703343;83;21110;-61
2021/09/14 09:18:16;;;;;;;25.08;13.28;;;;;;;27.19;47.80;100831.92;1703509;83;21071;-61
2021/09/14 09:20:43;;;;;;;25.05;13.53;;;;;;;27.24;46.32;100835.53;1703768;83;21072;-61
2021/09/14 09:23:20;;;;;;;27.13;13.38;;;;;;;27.24;46.04;100839.66;1702586;82;21845;-61
2021/09/14 09:25:48;;;;;;;41.08;18.35;;;;;;;27.25;45.88;100827.63;1710423;82;21169;-62
2021/09/14 09:28:20;;;;;;;36.85;16.35;;;;;;;27.30;46.67;100828.00;1700788;81;21083;-62
2021/09/14 09:30:56;;;;;;;30.15;16.73;;;;;;;27.32;46.69;100824.61;1708414;82;21036;-62
2021/09/14 09:33:25;;;;;;;34.75;18.70;;;;;;;27.36;46.62;100827.37;1735120;81;21525;-61
2021/09/14 09:35:54;;;;;;;26.60;15.00;;;;;;;27.48;46.87;100824.33;1696618;82;21136;-62
2021/09/14 09:38:21;;;;;;;32.00;18.90;;;;;;;27.56;46.14;100829.41;1714704;82;21062;-62
2021/09/14 09:40:48;;;;;;;31.02;19.25;;;;;;;27.60;46.27;100828.57;1745578;80;21181;-62
2021/09/14 09:43:15;;;;;;;30.02;18.27;;;;;;;27.61;46.94;100819.28;1688053;82;21703;-64
2021/09/14 09:45:48;;;;;;;32.48;16.82;;;;;;;27.56;47.33;100821.67;1638705;85;21102;-62
2021/09/14 09:48:36;;;;;;;34.43;16.77;;;;;;;27.53;47.09;100821.48;1683215;82;22597;-62
2021/09/14 09:51:06;;;;;;;34.43;17.87;;;;;;;27.58;46.92;100819.62;1710888;82;21171;-63
2021/09/14 09:53:34;;;;;;;26.95;17.00;;;;;;;27.58;47.40;100825.12;1718433;81;21090;-64
2021/09/14 09:56:16;;;;;;;30.60;17.80;;;;;;;27.59;47.42;100821.34;1734250;81;21011;-56
2021/09/14 09:58:44;;;;;;;27.07;17.45;;;;;;;27.57;47.38;100815.14;1736452;81;21054;-57
2021/09/14 10:04:15;;;;;;;22.45;15.30;;;;;;;27.56;46.59;100824.42;1721946;82;21497;-64
2021/09/14 10:06:51;;;;;;;27.77;16.30;;;;;;;27.55;46.83;100817.20;1725071;81;21146;-62
2021/09/14 10:09:22;;;;;;;29.20;15.68;;;;;;;27.53;47.11;100817.88;1716700;83;21054;-59
2021/09/14 10:11:55;;;;;;;26.75;13.90;;;;;;;27.53;46.68;100815.12;1725995;81;21062;-57
2021/09/14 10:14:24;;;;;;;22.10;13.28;;;;;;;27.53;46.64;100816.50;1721331;81;21043;-57
2021/09/14 10:16:51;;;;;;;13.55;9.23;;;;;;;27.61;45.77;100819.28;1722133;81;21097;-57
2021/09/14 10:19:27;;;;;;;16.57;10.70;;;;;;;27.64;43.70;100827.21;1728140;81;21063;-66
2021/09/14 10:22:08;;;;;;;28.40;17.85;;;;;;;27.60;43.44;100824.44;1723589;81;21079;-57
2021/09/14 10:24:35;;;;;;;23.80;16.23;;;;;;;27.61;45.22;100822.03;1729232;81;21053;-61
2021/09/14 10:27:13;;;;;;;29.87;19.45;;;;;;;27.62;45.22;100821.51;1730130;81;20994;-62
2021/09/14 10:29:41;;;;;;;38.80;21.42;;;;;;;27.64;46.93;100820.33;1723965;81;21033;-57
2021/09/14 10:32:11;;;;;;;30.23;17.92;;;;;;;27.67;48.51;100817.77;1728765;81;21014;-57
2021/09/14 10:45:11;;;;;;;32.00;18.10;;;;;;;27.85;46.68;100813.03;1741662;81;20894;-58
2021/09/14 10:47:49;;;;;;;30.02;18.55;;;;;;;27.94;47.75;100807.02;1730971;81;21526;-59
2021/09/14 10:55:39;;;;;;;26.68;17.27;;;;;;;27.88;47.34;100803.55;1744904;80;21088;-58
2021/09/14 10:58:06;;;;;;;25.45;15.35;;;;;;;27.88;47.69;100798.05;1746156;80;21384;-56
2021/09/14 11:03:23;;;;;;;25.50;15.30;;;;;;;27.94;46.53;100801.50;1748804;80;21060;-57
2021/09/14 11:05:52;;;;;;;31.65;15.72;;;;;;;27.96;45.92;100792.55;1750297;80;22211;-64
2021/09/14 11:08:26;;;;;;;22.90;16.00;;;;;;;27.98;45.90;100797.91;1754308;80;21092;-63
2021/09/14 11:10:59;;;;;;;30.27;17.92;;;;;;;27.97;46.35;100797.56;1729262;81;21099;-62
2021/09/14 11:13:30;;;;;;;25.88;18.65;;;;;;;27.96;46.89;100788.42;1725122;81;21018;-64
2021/09/14 11:16:09;;;;;;;25.30;17.12;;;;;;;27.90;46.95;100786.88;1739110;80;21084;-64
2021/09/14 11:18:37;;;;;;;19.12;14.75;;;;;;;27.82;47.10;100776.69;1716461;81;21717;-64
2021/09/14 11:21:10;;;;;;;31.73;17.25;;;;;;;27.78;45.94;100778.05;1720625;81;21081;-64
2021/09/14 11:23:40;;;;;;;27.75;17.07;;;;;;;27.68;46.59;100785.91;1734666;81;21031;-63
2021/09/14 11:26:18;;;;;;;28.02;18.02;;;;;;;27.62;47.17;100784.33;1729425;81;21060;-63
2021/09/14 11:28:57;;;;;;;24.85;16.20;;;;;;;27.61;47.03;100786.24;1715081;81;21060;-62
2021/09/14 11:31:31;;;;;;;37.80;21.65;;;;;;;27.59;46.88;100783.64;1720974;82;22767;-62
2021/09/14 11:33:59;;;;;;;52.33;33.92;;;;;;;27.57;46.88;100775.22;1727096;81;21688;-62
2021/09/14 11:36:59;;;;;;;26.70;18.48;;;;;;;27.52;47.13;100785.34;1720302;81;21065;-62
2021/09/14 11:42:01;;;;;;;27.95;18.30;;;;;;;27.29;46.94;100777.62;1721607;81;21122;-62
2021/09/14 11:44:29;;;;;;;24.35;17.10;;;;;;;27.17;47.39;100777.53;1728571;81;21036;-63
2021/09/14 11:47:07;;;;;;;29.75;17.60;;;;;;;27.03;47.48;100778.49;1718716;82;22340;-64
2021/09/14 11:49:34;;;;;;;25.85;17.27;;;;;;;26.93;47.70;100785.13;1722371;82;21640;-63
2021/09/14 11:54:50;;;;;;;29.90;18.02;;;;;;;26.72;48.17;100779.42;1708181;82;21313;-63
2021/09/14 11:57:18;;;;;;;30.20;19.17;;;;;;;26.57;48.21;100775.86;1709298;83;22604;-63
2021/09/14 11:59:45;;;;;;;35.52;19.50;;;;;;;26.45;48.52;100777.14;1715851;83;21041;-63
2021/09/14 12:02:17;;;;;;;28.12;17.77;;;;;;;26.30;48.70;100769.94;1716912;82;21069;-63
2021/09/14 12:04:44;;;;;;;31.80;17.90;;;;;;;26.19;48.77;100772.41;1699828;82;21084;-62
2021/09/14 12:07:19;;;;;;;31.10;17.95;;;;;;;26.10;48.86;100770.56;1703580;82;21109;-63
2021/09/14 12:10:03;;;;;;;28.17;18.10;;;;;;;26.03;48.83;100767.08;1703867;82;21562;-62
2021/09/14 12:12:32;;;;;;;27.10;17.52;;;;;;;25.97;48.54;100761.34;1712985;82;21396;-63
2021/09/14 12:15:01;;;;;;;29.23;15.88;;;;;;;25.94;48.46;100767.98;1753364;80;20919;-62
2021/09/14 12:17:29;;;;;;;28.67;17.35;;;;;;;25.95;48.34;100757.36;1757211;80;21030;-63
2021/09/14 12:19:56;;;;;;;29.30;16.45;;;;;;;25.97;48.31;100758.59;1750241;80;21114;-56
2021/09/14 12:22:27;;;;;;;22.90;15.08;;;;;;;25.98;48.23;100756.20;1720709;81;21460;-60
2021/09/14 12:24:57;;;;;;;31.37;15.98;;;;;;;25.98;48.03;100753.45;1732254;81;21317;-63
2021/09/14 12:27:24;;;;;;;26.48;15.98;;;;;;;26.00;47.91;100751.41;1699722;81;21209;-63
2021/09/14 12:35:46;;;;;;;23.35;14.58;;;;;;;26.20;47.63;100760.42;1763451;79;21627;-62
2021/09/14 12:53:52;;;;;;;26.40;12.15;;;;;;;26.80;45.74;100767.11;1765368;78;21452;-62
2021/09/14 12:58:54;;;;;;;26.60;11.97;;;;;;;26.83;45.60;100790.69;1696808;83;21158;-63
2021/09/14 13:01:21;;;;;;;23.87;10.80;;;;;;;26.79;45.94;100827.26;1756490;80;21133;-56
2021/09/14 13:09:09;;;;;;;14.58;7.72;;;;;;;25.10;57.66;100866.67;1760652;79;22440;-63
2021/09/14 13:11:58;;;;;;;157.78;109.90;;;;;;;24.02;62.38;100833.17;1755882;80;21067;-57
2021/09/14 13:17:28;;;;;;;13.43;5.80;;;;;;;22.47;68.27;100838.37;1738424;80;22131;-63
2021/09/14 13:22:29;;;;;;;241.75;158.42;;;;;;;21.01;73.21;100845.89;1756465;80;21107;-64
2021/09/14 13:27:44;;;;;;;70.57;47.90;;;;;;;20.64;72.23;100852.77;1751823;80;22412;-63
2021/09/14 13:30:12;;;;;;;30.30;22.67;;;;;;;20.63;73.53;100846.95;1750476;80;21134;-58
2021/09/14 13:38:37;;;;;;;9.10;4.67;;;;;;;20.54;77.96;100856.69;1750300;80;21072;-58
2021/09/14 13:41:07;;;;;;;6.90;3.90;;;;;;;20.41;75.13;100854.02;1751531;80;21126;-58
2021/09/14 13:46:13;;;;;;;5.28;3.72;;;;;;;20.35;68.92;100843.61;1735154;81;21043;-57
2021/09/14 13:48:59;;;;;;;4.80;3.83;;;;;;;20.50;66.29;100837.02;1740748;80;21505;-58
2021/09/14 13:51:29;;;;;;;5.53;3.83;;;;;;;20.64;64.51;100837.80;1725102;80;21039;-57
2021/09/14 13:53:57;;;;;;;7.37;4.80;;;;;;;20.80;64.55;100828.01;1738538;80;21124;-58
2021/09/14 13:56:36;;;;;;;5.90;4.72;;;;;;;20.91;64.64;100825.81;1708041;82;21631;-56
2021/09/14 13:59:03;;;;;;;6.58;5.53;;;;;;;20.96;63.47;100818.14;1711311;82;21372;-62
2021/09/14 14:01:30;;;;;;;8.70;6.67;;;;;;;21.09;64.72;100816.17;1692579;83;21580;-65
2021/09/14 14:03:57;;;;;;;11.88;7.15;;;;;;;21.21;66.21;100814.33;1714754;82;21121;-61
2021/09/14 14:06:30;;;;;;;7.72;6.28;;;;;;;21.29;68.10;100813.73;1682223;84;21133;-61
2021/09/14 14:09:14;;;;;;;13.48;7.22;;;;;;;21.32;68.89;100813.48;1675657;83;21590;-62
2021/09/14 14:11:44;;;;;;;12.93;7.50;;;;;;;21.40;69.08;100815.59;1709738;82;21063;-58
2021/09/14 14:14:12;;;;;;;9.18;6.58;;;;;;;21.51;69.92;100810.64;1700721;82;21300;-59
2021/09/14 14:16:40;;;;;;;9.28;6.75;;;;;;;21.57;68.67;100810.17;1682262;85;21095;-57
2021/09/14 14:19:07;;;;;;;11.30;6.45;;;;;;;21.64;68.06;100807.30;1684043;84;21921;-57
2021/09/14 14:21:35;;;;;;;13.88;7.10;;;;;;;21.73;67.66;100801.62;1700968;82;21039;-57
2021/09/14 14:24:02;;;;;;;11.48;6.78;;;;;;;21.79;66.90;100803.00;1696907;83;21528;-58
2021/09/14 14:26:33;;;;;;;14.95;6.50;;;;;;;21.86;66.25;100801.48;1687507;84;21098;-59
2021/09/14 14:29:12;;;;;;;10.95;6.95;;;;;;;21.93;65.65;100808.17;1694293;82;20952;-63
2021/09/14 14:31:41;;;;;;;13.43;6.70;;;;;;;22.00;64.71;100805.32;1712991;82;21314;-61
2021/09/14 14:37:01;;;;;;;12.15;7.12;;;;;;;22.19;64.24;100807.86;1693328;83;21075;-56
2021/09/14 14:39:28;;;;;;;9.35;7.10;;;;;;;22.27;64.06;100802.64;1715284;83;21083;-59
2021/09/14 14:41:55;;;;;;;13.05;7.40;;;;;;;22.35;64.22;100807.94;1701051;83;21521;-58
2021/09/14 14:44:23;;;;;;;16.48;8.15;;;;;;;22.42;64.79;100810.52;1696250;83;21514;-57
2021/09/14 14:49:22;;;;;;;15.48;7.40;;;;;;;22.51;66.07;100815.25;1664696;83;21017;-57
2021/09/14 14:51:50;;;;;;;10.35;8.15;;;;;;;22.59;65.69;100818.19;1700010;82;21649;-58
2021/09/14 14:54:18;;;;;;;15.40;8.53;;;;;;;22.67;65.59;100817.53;1687634;83;21154;-57
2021/09/14 14:56:45;;;;;;;15.43;8.08;;;;;;;22.78;64.77;100813.03;1691116;82;21154;-57
2021/09/14 14:59:12;;;;;;;15.72;7.28;;;;;;;22.85;63.74;100812.34;1678376;82;21119;-57
2021/09/14 15:01:39;;;;;;;11.10;6.78;;;;;;;22.95;62.66;100815.66;1717892;81;21685;-57
2021/09/14 15:04:07;;;;;;;15.60;7.70;;;;;;;23.06;62.33;100815.58;1697677;82;21103;-57
2021/09/14 15:06:35;;;;;;;24.95;9.90;;;;;;;23.14;62.29;100824.48;1716063;81;21098;-58
2021/09/14 15:09:04;;;;;;;16.10;10.38;;;;;;;23.22;62.50;100827.92;1732477;82;22417;-58
2021/09/14 15:11:39;;;;;;;25.35;10.18;;;;;;;23.27;62.95;100822.45;1721031;82;21099;-57
2021/09/14 15:14:05;;;;;;;13.35;9.13;;;;;;;23.32;63.55;100819.28;1692516;82;21056;-57
2021/09/14 15:16:33;;;;;;;21.45;9.48;;;;;;;23.33;64.14;100826.52;1707407;82;21081;-58
2021/09/14 15:19:02;;;;;;;19.57;9.18;;;;;;;23.34;64.13;100821.90;1722605;82;21544;-58
2021/09/14 15:24:24;;;;;;;13.80;8.80;;;;;;;23.31;64.14;100827.13;1719668;83;22314;-57
2021/09/14 15:26:54;;;;;;;19.32;9.60;;;;;;;23.30;64.20;100829.50;1721758;82;21364;-57
2021/09/14 15:29:55;;;;;;;17.45;9.30;;;;;;;23.30;64.39;100834.97;1728871;82;21375;-57
2021/09/14 15:32:22;;;;;;;19.73;9.55;;;;;;;23.31;64.61;100836.70;1709381;82;20948;-57
2021/09/14 15:34:49;;;;;;;18.35;9.78;;;;;;;23.32;64.91;100837.06;1714176;82;21143;-58
2021/09/14 15:37:18;;;;;;;23.85;9.73;;;;;;;23.34;65.34;100833.72;1706064;82;21591;-57
2021/09/14 15:42:21;;;;;;;24.85;11.00;;;;;;;23.41;65.92;100836.75;1700214;84;21064;-57
2021/09/14 15:44:48;;;;;;;31.30;10.93;;;;;;;23.50;66.23;100839.18;1700592;83;21486;-57
2021/09/14 15:47:15;;;;;;;26.37;10.00;;;;;;;23.53;66.37;100837.53;1699515;84;21948;-58
2021/09/14 15:49:42;;;;;;;15.38;9.65;;;;;;;23.53;66.94;100832.06;1733275;82;21897;-58
2021/09/14 15:52:09;;;;;;;14.25;9.83;;;;;;;23.51;67.05;100832.22;1681471;83;21115;-58